Terminal Aerodrome Forecast
Issued by NWS Kansas City/Pleasant Hill, MO

Home | Current Version | Previous Version | Text Only | Print | Product List | Glossary On
Versions: 1 2 3 4 5 6 7 8 9 10 11 12 13
000
FTUS43 KEAX 201700
TAFMCI
TAF
KMCI 201720Z 2018/2118 23009KT P6SM SCT070
     FM202000 26009KT P6SM VCTS BKN040CB
      TEMPO 2020/2024 4SM -TSRA
     FM210300 30007KT P6SM SCT050=

USA.gov is the U.S. government's official web portal to all federal, state and local government web resources and services.